Volcan De Tindaya — ECCK — position and weather

sailwx.info

Track history (hours):
 
Tides and Currents Weather Stations Pressure Air Temp Water Temp Dewpoint Dewpoint Depression Visibility Wind Speed Wind Dir Waves Ship Positions

Volcan De Tindaya

Last reported at 2017-Nov-24 19:34 UTC. Time now 2017-Nov-25 00:17 UTC.
Position N 28°45' W 013°51'.

Length 78 m; draft 3.5 m.

Type: Passenger vessel. MMSI: 224127000.

Date/timePositionNaut miles runAvg speedWind from/ knotsBaromVisibWave heightAir tempDewpointWater temp
2017-Nov-24 19:34N 28°45' W 013°51'215.3
2017-Nov-24 19:27N 28°47' W 013°51'2 0.4
2017-Nov-24 15:37N 28°45' W 013°51'215.0
2017-Nov-24 15:30N 28°47' W 013°51'3 0.4
2017-Nov-24 09:37N 28°44' W 013°51'214.1
2017-Nov-24 09:30N 28°46' W 013°51'611.2
2017-Nov-24 09:00N 28°52' W 013°50'2 4.2
2017-Nov-24 08:29N 28°49' W 013°50'5 5.9
2017-Nov-24 07:35N 28°44' W 013°52'1 6.4
2017-Nov-24 07:30N 28°45' W 013°51'713.9
2017-Nov-24 07:00N 28°52' W 013°50'0 0.0
2017-Nov-24 06:30N 28°52' W 013°50'0 0.0
2017-Nov-24 05:20N 28°52' W 013°50'0 0.0
2017-Nov-24 04:50N 28°52' W 013°50'0 0.0
2017-Nov-24 04:30N 28°52' W 013°50'0 0.0
2017-Nov-24 03:59N 28°52' W 013°50'0 0.0
2017-Nov-24 02:40N 28°52' W 013°50'0 0.0
2017-Nov-24 02:30N 28°52' W 013°50'0 0.0
2017-Nov-24 02:00N 28°52' W 013°50'0 0.0
2017-Nov-24 01:30N 28°52' W 013°50'0 0.0
2017-Nov-24 01:00N 28°52' W 013°50'0 0.0
2017-Nov-24 00:24N 28°52' W 013°50'0 0.0
2017-Nov-23 23:54N 28°52' W 013°50'0 0.0
2017-Nov-23 22:34N 28°52' W 013°50'0 0.0
2017-Nov-23 22:30N 28°52' W 013°50'0 0.0
2017-Nov-23 22:00N 28°52' W 013°50'0 0.0
2017-Nov-23 21:30N 28°52' W 013°50'0 0.0
2017-Nov-23 21:00N 28°52' W 013°50'1 2.1
2017-Nov-23 20:30N 28°51' W 013°50'5 5.1
2017-Nov-23 19:28N 28°45' W 013°51'613.8
2017-Nov-23 19:00N 28°52' W 013°50'1 2.6
2017-Nov-23 18:30N 28°50' W 013°50'5 5.2
2017-Nov-23 17:32N 28°45' W 013°51'115.0
2017-Nov-23 17:28N 28°46' W 013°51'5 7.4
2017-Nov-23 16:46N 28°52' W 013°50'2 9.8
2017-Nov-23 16:30N 28°49' W 013°50'0 0.1
2017-Nov-23 10:30N 28°49' W 013°50'4 4.2
2017-Nov-23 09:30N 28°45' W 013°51'6 1.0
2017-Nov-23 03:23N 28°52' W 013°50'0 0.0
2017-Nov-23 02:55N 28°52' W 013°50'0 0.0
2017-Nov-23 02:30N 28°52' W 013°50'0 0.0
2017-Nov-22 22:11N 28°52' W 013°50'0 0.0
2017-Nov-22 22:00N 28°52' W 013°50'0 0.0
2017-Nov-22 21:30N 28°52' W 013°50'0 0.0
2017-Nov-22 21:00N 28°52' W 013°50'1 2.4
2017-Nov-22 20:30N 28°50' W 013°50'5 5.3
2017-Nov-22 19:28N 28°45' W 013°51'  
2017-Nov-17 09:31N 28°46' W 013°51'015.4
2017-Nov-17 09:31N 28°46' W 013°51'5 0.2
2017-Nov-16 10:42N 28°51' W 013°50'315.0
2017-Nov-16 10:28N 28°48' W 013°50'3 1.4
2017-Nov-16 08:33N 28°51' W 013°50'7 6.9
2017-Nov-16 07:36N 28°44' W 013°52'7 0.5
2017-Nov-15 18:46N 28°51' W 013°50'2 0.6
2017-Nov-15 14:25N 28°48' W 013°50'3 0.7
2017-Nov-15 10:41N 28°51' W 013°50'315.4
2017-Nov-15 10:28N 28°48' W 013°50'  
Track history (hours):
 
Tides and Currents Weather Stations Pressure Air Temp Water Temp Dewpoint Dewpoint Depression Visibility Wind Speed Wind Dir Waves Ship Positions

Volcan De Tindaya

Last reported at 2017-Nov-24 19:34 UTC. Time now 2017-Nov-25 00:17 UTC.
Position N 28°45' W 013°51'.

Length 78 m; draft 3.5 m.

Type: Passenger vessel. MMSI: 224127000.

Date/timePositionNaut miles runAvg speedWind from/ knotsBaromVisibWave heightAir tempDewpointWater temp
2017-Nov-24 19:34N 28°45' W 013°51'215.3
2017-Nov-24 19:27N 28°47' W 013°51'2 0.4
2017-Nov-24 15:37N 28°45' W 013°51'215.0
2017-Nov-24 15:30N 28°47' W 013°51'3 0.4
2017-Nov-24 09:37N 28°44' W 013°51'214.1
2017-Nov-24 09:30N 28°46' W 013°51'611.2
2017-Nov-24 09:00N 28°52' W 013°50'2 4.2
2017-Nov-24 08:29N 28°49' W 013°50'5 5.9
2017-Nov-24 07:35N 28°44' W 013°52'1 6.4
2017-Nov-24 07:30N 28°45' W 013°51'713.9
2017-Nov-24 07:00N 28°52' W 013°50'0 0.0
2017-Nov-24 06:30N 28°52' W 013°50'0 0.0
2017-Nov-24 05:20N 28°52' W 013°50'0 0.0
2017-Nov-24 04:50N 28°52' W 013°50'0 0.0
2017-Nov-24 04:30N 28°52' W 013°50'0 0.0
2017-Nov-24 03:59N 28°52' W 013°50'0 0.0
2017-Nov-24 02:40N 28°52' W 013°50'0 0.0
2017-Nov-24 02:30N 28°52' W 013°50'0 0.0
2017-Nov-24 02:00N 28°52' W 013°50'0 0.0
2017-Nov-24 01:30N 28°52' W 013°50'0 0.0
2017-Nov-24 01:00N 28°52' W 013°50'0 0.0
2017-Nov-24 00:24N 28°52' W 013°50'0 0.0
2017-Nov-23 23:54N 28°52' W 013°50'0 0.0
2017-Nov-23 22:34N 28°52' W 013°50'0 0.0
2017-Nov-23 22:30N 28°52' W 013°50'0 0.0
2017-Nov-23 22:00N 28°52' W 013°50'0 0.0
2017-Nov-23 21:30N 28°52' W 013°50'0 0.0
2017-Nov-23 21:00N 28°52' W 013°50'1 2.1
2017-Nov-23 20:30N 28°51' W 013°50'5 5.1
2017-Nov-23 19:28N 28°45' W 013°51'613.8
2017-Nov-23 19:00N 28°52' W 013°50'1 2.6
2017-Nov-23 18:30N 28°50' W 013°50'5 5.2
2017-Nov-23 17:32N 28°45' W 013°51'115.0
2017-Nov-23 17:28N 28°46' W 013°51'5 7.4
2017-Nov-23 16:46N 28°52' W 013°50'2 9.8
2017-Nov-23 16:30N 28°49' W 013°50'0 0.1
2017-Nov-23 10:30N 28°49' W 013°50'4 4.2
2017-Nov-23 09:30N 28°45' W 013°51'6 1.0
2017-Nov-23 03:23N 28°52' W 013°50'0 0.0
2017-Nov-23 02:55N 28°52' W 013°50'0 0.0
2017-Nov-23 02:30N 28°52' W 013°50'0 0.0
2017-Nov-22 22:11N 28°52' W 013°50'0 0.0
2017-Nov-22 22:00N 28°52' W 013°50'0 0.0
2017-Nov-22 21:30N 28°52' W 013°50'0 0.0
2017-Nov-22 21:00N 28°52' W 013°50'1 2.4
2017-Nov-22 20:30N 28°50' W 013°50'5 5.3
2017-Nov-22 19:28N 28°45' W 013°51'  
2017-Nov-17 09:31N 28°46' W 013°51'015.4
2017-Nov-17 09:31N 28°46' W 013°51'5 0.2
2017-Nov-16 10:42N 28°51' W 013°50'315.0
2017-Nov-16 10:28N 28°48' W 013°50'3 1.4
2017-Nov-16 08:33N 28°51' W 013°50'7 6.9
2017-Nov-16 07:36N 28°44' W 013°52'7 0.5
2017-Nov-15 18:46N 28°51' W 013°50'2 0.6
2017-Nov-15 14:25N 28°48' W 013°50'3 0.7
2017-Nov-15 10:41N 28°51' W 013°50'315.4
2017-Nov-15 10:28N 28°48' W 013°50'  

Dump ship's entire track history